createdAt,value
2023-04-21T00:01:10.567Z,79.65
2023-04-21T00:06:13.215Z,79.67
2023-04-21T00:11:15.475Z,79.62
2023-04-21T00:16:17.641Z,79.33
2023-04-21T00:21:20.301Z,79.08
2023-04-21T00:26:22.722Z,79.18
2023-04-21T00:31:25.417Z,79.27
2023-04-21T00:36:28.604Z,79.44
2023-04-21T00:41:31.257Z,79.58
2023-04-21T00:46:34.549Z,79.70
2023-04-21T00:51:37.687Z,78.99
2023-04-21T00:56:40.189Z,78.71
2023-04-21T01:01:42.809Z,78.61
2023-04-21T01:06:45.521Z,79.34
2023-04-21T01:12:08.366Z,79.70
2023-04-21T01:17:10.689Z,80.00
2023-04-21T01:22:13.776Z,80.14
2023-04-21T01:27:22.135Z,80.26
2023-04-21T01:32:30.470Z,80.47
2023-04-21T01:37:34.592Z,80.56
2023-04-21T01:42:40.620Z,80.71
2023-04-21T01:47:43.273Z,80.94
2023-04-21T01:52:45.640Z,81.21
2023-04-21T01:57:51.134Z,81.36
2023-04-21T02:02:53.902Z,81.61
2023-04-21T02:07:55.989Z,82.13
2023-04-21T02:12:58.235Z,82.47
2023-04-21T02:18:00.909Z,82.42
2023-04-21T02:23:03.467Z,82.41
2023-04-21T02:28:05.652Z,82.40
2023-04-21T02:33:07.862Z,82.25
2023-04-21T02:38:13.061Z,82.22
2023-04-21T02:43:17.985Z,82.16
2023-04-21T02:48:23.142Z,82.11
2023-04-21T02:53:26.530Z,82.10
2023-04-21T02:58:28.627Z,82.04
2023-04-21T03:03:31.998Z,81.84
2023-04-21T03:08:34.445Z,81.77
2023-04-21T03:13:36.495Z,81.67
2023-04-21T03:18:38.405Z,81.51
2023-04-21T03:23:41.264Z,81.44
2023-04-21T03:28:43.369Z,81.34
2023-04-21T03:33:45.763Z,81.44
2023-04-21T03:38:47.727Z,81.50
2023-04-21T03:43:52.388Z,81.61
2023-04-21T03:48:54.505Z,81.81
2023-04-21T03:53:56.544Z,81.89
2023-04-21T03:58:58.909Z,82.10
2023-04-21T04:04:01.186Z,82.25
2023-04-21T04:09:05.124Z,82.34
2023-04-21T04:14:07.237Z,82.40
2023-04-21T04:19:09.378Z,82.31
2023-04-21T04:24:12.379Z,82.07
2023-04-21T04:29:16.243Z,81.94
2023-04-21T04:34:19.242Z,82.10
2023-04-21T04:39:22.332Z,82.12
2023-04-21T04:44:26.010Z,81.93
2023-04-21T04:49:27.952Z,81.64
2023-04-21T04:54:30.068Z,81.26
2023-04-21T04:59:32.973Z,80.50
2023-04-21T05:04:35.380Z,79.53
2023-04-21T05:09:37.361Z,79.00
2023-04-21T05:14:39.484Z,78.68
2023-04-21T05:19:41.409Z,78.19
2023-04-21T05:24:44.818Z,77.68
2023-04-21T05:29:46.811Z,77.19
2023-04-21T05:34:48.772Z,77.04
2023-04-21T05:39:51.685Z,76.67
2023-04-21T05:44:54.706Z,76.41
2023-04-21T05:49:56.612Z,76.24
2023-04-21T05:55:02.268Z,75.92
2023-04-21T06:00:05.411Z,75.33
2023-04-21T06:05:08.011Z,74.19
2023-04-21T06:10:11.882Z,73.48
2023-04-21T06:15:13.881Z,72.96
2023-04-21T06:20:17.735Z,70.98
2023-04-21T06:25:20.043Z,70.45
2023-04-21T06:30:22.949Z,70.33
2023-04-21T06:35:25.062Z,70.31
2023-04-21T06:40:26.911Z,69.27
2023-04-21T06:45:29.166Z,70.67
2023-04-21T06:50:31.787Z,69.64
2023-04-21T06:55:34.340Z,70.09
2023-04-21T07:00:36.403Z,69.08
2023-04-21T07:05:38.804Z,68.90
2023-04-21T07:10:41.078Z,67.42
2023-04-21T07:15:43.224Z,68.11
2023-04-21T07:20:45.500Z,67.13
2023-04-21T07:25:48.280Z,67.14
2023-04-21T07:30:50.586Z,65.60
2023-04-21T07:35:52.786Z,64.31
2023-04-21T07:40:54.982Z,64.82
2023-04-21T07:45:58.407Z,63.22
2023-04-21T07:51:00.565Z,61.28
2023-04-21T07:56:02.904Z,60.77
2023-04-21T08:01:05.110Z,61.06
2023-04-21T08:06:08.253Z,58.94
2023-04-21T08:11:11.011Z,58.48
2023-04-21T08:16:13.764Z,59.96
2023-04-21T08:21:15.723Z,62.29
2023-04-21T08:26:22.156Z,62.52
2023-04-21T08:31:24.135Z,59.18
2023-04-21T08:36:29.851Z,60.62
2023-04-21T08:41:32.164Z,58.99
2023-04-21T08:46:36.356Z,60.02
2023-04-21T08:51:38.362Z,56.65
2023-04-21T08:56:40.916Z,55.97
2023-04-21T09:02:06.868Z,52.59
2023-04-21T09:07:09.729Z,53.16
2023-04-21T09:12:11.629Z,51.91
2023-04-21T09:17:16.558Z,52.30
2023-04-21T09:22:19.130Z,50.69
2023-04-21T09:27:21.885Z,47.66
2023-04-21T09:32:23.867Z,44.47
2023-04-21T09:37:26.025Z,45.31
2023-04-21T09:42:32.114Z,42.23
2023-04-21T09:47:48.588Z,41.39
2023-04-21T09:52:52.679Z,40.84
2023-04-21T09:58:02.738Z,40.55
2023-04-21T10:03:05.966Z,39.31
2023-04-21T10:08:11.304Z,39.74
2023-04-21T10:13:16.646Z,39.27
2023-04-21T10:18:22.676Z,37.24
2023-04-21T10:23:33.900Z,36.43
2023-04-21T10:28:43.801Z,36.98
2023-04-21T10:34:13.799Z,37.46
2023-04-21T10:39:38.709Z,36.22
2023-04-21T10:44:44.332Z,35.60
2023-04-21T10:49:50.031Z,36.55
2023-04-21T10:54:54.823Z,36.59
2023-04-21T10:59:57.197Z,34.83
2023-04-21T11:05:01.574Z,36.94
2023-04-21T11:10:08.700Z,35.50
2023-04-21T11:15:13.592Z,35.41
2023-04-21T11:20:15.881Z,33.46
2023-04-21T11:25:18.839Z,33.10
2023-04-21T11:30:21.503Z,33.84
2023-04-21T11:35:23.497Z,34.84
2023-04-21T11:40:25.669Z,35.22
2023-04-21T11:45:29.137Z,36.13
2023-04-21T11:50:32.525Z,36.80
2023-04-21T11:55:34.864Z,36.38
2023-04-21T12:00:37.144Z,33.94
2023-04-21T12:05:39.455Z,35.02
2023-04-21T12:10:47.060Z,34.59
2023-04-21T12:15:49.263Z,34.03
2023-04-21T12:20:52.668Z,34.77
2023-04-21T12:25:54.488Z,33.92
2023-04-21T12:30:56.746Z,32.41
2023-04-21T12:35:59.883Z,34.32
2023-04-21T12:41:02.030Z,33.69
2023-04-21T12:46:04.037Z,33.33
2023-04-21T12:51:06.181Z,32.17
2023-04-21T12:56:08.194Z,33.74
2023-04-21T13:01:12.245Z,34.53
2023-04-21T13:06:14.263Z,34.54
2023-04-21T13:11:16.219Z,33.21
2023-04-21T13:16:18.152Z,33.77
2023-04-21T13:21:20.340Z,33.14
2023-04-21T13:26:22.159Z,32.58
2023-04-21T13:31:24.697Z,31.28
2023-04-21T13:36:26.973Z,32.49
2023-04-21T13:41:29.113Z,33.15
2023-04-21T13:46:31.103Z,34.51
2023-04-21T13:51:33.220Z,35.33
2023-04-21T13:56:35.061Z,34.26
2023-04-21T14:01:37.788Z,34.99
2023-04-21T14:06:39.945Z,34.67
2023-04-21T14:11:42.366Z,34.27
2023-04-21T14:16:44.395Z,33.63
2023-04-21T14:21:46.502Z,33.57
2023-04-21T14:26:48.528Z,33.55
2023-04-21T14:31:51.560Z,33.58
2023-04-21T14:36:54.036Z,33.86
2023-04-21T14:41:57.009Z,33.31
2023-04-21T14:47:09.281Z,33.44
2023-04-21T14:52:13.165Z,34.13
2023-04-21T14:57:19.834Z,33.90
2023-04-21T15:02:23.038Z,33.83
2023-04-21T15:07:25.323Z,34.40
2023-04-21T15:12:27.519Z,33.47
2023-04-21T15:17:30.683Z,33.05
2023-04-21T15:22:34.606Z,32.91
2023-04-21T15:27:36.968Z,33.22
2023-04-21T15:32:41.192Z,33.63
2023-04-21T15:37:45.812Z,33.11
2023-04-21T15:42:51.688Z,33.75
2023-04-21T15:47:53.856Z,34.40
2023-04-21T15:52:56.101Z,35.51
2023-04-21T15:57:58.232Z,36.38
2023-04-21T16:03:01.943Z,36.19
2023-04-21T16:08:04.757Z,36.71
2023-04-21T16:13:08.021Z,37.58
2023-04-21T16:18:10.009Z,37.41
2023-04-21T16:23:13.162Z,36.88
2023-04-21T16:28:15.472Z,36.22
2023-04-21T16:33:18.418Z,34.93
2023-04-21T16:38:20.403Z,35.55
2023-04-21T16:43:23.600Z,35.38
2023-04-21T16:48:25.665Z,35.53
2023-04-21T16:53:27.905Z,36.70
2023-04-21T16:58:30.238Z,37.39
2023-04-21T17:03:32.623Z,38.21
2023-04-21T17:08:34.971Z,38.53
2023-04-21T17:13:39.295Z,38.88
2023-04-21T17:18:41.603Z,39.40
2023-04-21T17:23:43.686Z,39.66
2023-04-21T17:28:46.147Z,39.98
2023-04-21T17:33:48.668Z,39.91
2023-04-21T17:38:51.082Z,40.34
2023-04-21T17:43:57.428Z,40.59
2023-04-21T17:48:59.394Z,40.90
2023-04-21T17:54:03.348Z,41.28
2023-04-21T17:59:05.526Z,41.49
2023-04-21T18:04:09.448Z,41.68
2023-04-21T18:09:12.164Z,41.91
2023-04-21T18:14:14.186Z,42.06
2023-04-21T18:19:17.361Z,42.78
2023-04-21T18:24:19.479Z,43.12
2023-04-21T18:29:21.689Z,43.43
2023-04-21T18:34:24.216Z,43.78
2023-04-21T18:39:26.166Z,44.13
2023-04-21T18:44:30.181Z,44.05
2023-04-21T18:49:32.579Z,44.09
2023-04-21T18:54:35.476Z,44.06
2023-04-21T18:59:38.781Z,44.50
2023-04-21T19:04:44.053Z,44.53
2023-04-21T19:09:46.436Z,45.05
2023-04-21T19:14:49.484Z,45.14
2023-04-21T19:19:51.798Z,45.27
2023-04-21T19:24:56.122Z,45.76
2023-04-21T19:29:58.815Z,46.87
2023-04-21T19:35:06.032Z,48.07
2023-04-21T19:40:09.131Z,48.29
2023-04-21T19:45:12.331Z,48.43
2023-04-21T19:50:14.635Z,48.62
2023-04-21T19:55:17.280Z,48.79
2023-04-21T20:00:19.460Z,48.94
2023-04-21T20:05:22.007Z,48.96
2023-04-21T20:10:23.997Z,49.02
2023-04-21T20:15:27.028Z,48.97
2023-04-21T20:20:29.728Z,49.00
2023-04-21T20:25:32.106Z,49.11
2023-04-21T20:30:34.662Z,49.13
2023-04-21T20:35:40.704Z,49.36
2023-04-21T20:40:43.681Z,49.54
2023-04-21T20:45:47.654Z,49.70
2023-04-21T20:50:51.369Z,49.76
2023-04-21T20:55:53.668Z,49.91
2023-04-21T21:00:55.548Z,50.12
2023-04-21T21:05:57.595Z,50.51
2023-04-21T21:11:00.296Z,51.44
2023-04-21T21:16:07.819Z,51.00
2023-04-21T21:21:10.748Z,50.99
2023-04-21T21:26:12.801Z,51.63
2023-04-21T21:31:14.615Z,51.87
2023-04-21T21:36:17.441Z,52.06
2023-04-21T21:41:21.565Z,52.39
2023-04-21T21:46:43.723Z,52.99
2023-04-21T21:51:48.088Z,53.02
2023-04-21T21:56:50.489Z,53.22
2023-04-21T22:01:52.548Z,53.45
2023-04-21T22:06:54.871Z,53.69
